createdAt,value
2022-08-04T00:02:23.550Z,57.41
2022-08-04T00:07:43.892Z,57.36
2022-08-04T00:12:51.790Z,57.39
2022-08-04T00:18:00.215Z,57.56
2022-08-04T00:23:03.361Z,57.63
2022-08-04T00:28:07.634Z,57.79
2022-08-04T00:33:10.989Z,58.01
2022-08-04T00:38:17.689Z,58.11
2022-08-04T00:44:23.894Z,58.07
2022-08-04T00:50:09.853Z,58.14
2022-08-04T00:55:24.611Z,58.19
2022-08-04T01:00:33.206Z,58.11
2022-08-04T01:05:47.912Z,58.25
2022-08-04T01:11:04.503Z,58.44
2022-08-04T01:16:11.450Z,58.50
2022-08-04T01:21:31.557Z,58.73
2022-08-04T01:27:05.608Z,58.93
2022-08-04T01:32:19.218Z,59.11
2022-08-04T01:37:48.821Z,59.13
2022-08-04T01:42:53.773Z,59.07
2022-08-04T01:47:57.737Z,59.28
2022-08-04T01:53:01.715Z,59.31
2022-08-04T01:58:05.731Z,59.39
2022-08-04T02:03:09.464Z,59.41
2022-08-04T02:08:27.500Z,59.55
2022-08-04T02:14:00.508Z,59.55
2022-08-04T02:19:23.295Z,59.74
2022-08-04T02:24:27.975Z,59.70
2022-08-04T02:29:43.701Z,59.81
2022-08-04T02:35:00.816Z,59.64
2022-08-04T02:40:06.758Z,59.90
2022-08-04T02:45:12.112Z,59.95
2022-08-04T02:50:15.121Z,59.99
2022-08-04T02:55:33.994Z,60.03
2022-08-04T03:00:37.881Z,60.08
2022-08-04T03:06:10.960Z,60.20
2022-08-04T03:11:43.388Z,60.24
2022-08-04T03:17:12.778Z,60.49
2022-08-04T03:22:15.660Z,60.59
2022-08-04T03:27:48.818Z,60.58
2022-08-04T03:33:13.545Z,60.64
2022-08-04T03:38:34.982Z,60.54
2022-08-04T03:43:57.721Z,60.58
2022-08-04T03:49:40.371Z,60.53
2022-08-04T03:55:10.336Z,60.44
2022-08-04T04:00:18.936Z,60.41
2022-08-04T04:05:30.613Z,60.67
2022-08-04T04:11:07.696Z,60.56
2022-08-04T04:16:38.268Z,60.49
2022-08-04T04:22:24.048Z,60.43
2022-08-04T04:27:48.562Z,60.25
2022-08-04T04:33:08.308Z,60.26
2022-08-04T04:38:19.730Z,60.14
2022-08-04T04:44:03.490Z,60.17
2022-08-04T04:49:41.018Z,60.20
2022-08-04T04:55:10.306Z,60.26
2022-08-04T05:00:14.179Z,60.59
2022-08-04T05:05:34.867Z,60.68
2022-08-04T05:10:56.415Z,60.65
2022-08-04T05:16:06.646Z,60.90
2022-08-04T05:21:33.657Z,61.02
2022-08-04T05:26:45.000Z,61.00
2022-08-04T05:31:52.415Z,61.27
2022-08-04T05:37:02.281Z,61.25
2022-08-04T05:42:07.263Z,61.30
2022-08-04T05:47:13.428Z,61.22
2022-08-04T05:52:18.721Z,61.10
2022-08-04T05:57:21.920Z,60.93
2022-08-04T06:02:27.562Z,60.78
2022-08-04T06:07:30.437Z,60.64
2022-08-04T06:12:49.708Z,60.58
2022-08-04T06:19:57.866Z,60.45
2022-08-04T06:23:20.891Z,60.45
2022-08-04T06:28:24.664Z,60.26
2022-08-04T06:33:54.278Z,60.22
2022-08-04T06:38:59.256Z,60.09
2022-08-04T06:44:10.406Z,60.02
2022-08-04T06:49:14.124Z,59.74
2022-08-04T06:54:17.094Z,59.60
2022-08-04T06:59:22.401Z,59.47
2022-08-04T07:04:25.656Z,59.32
2022-08-04T07:09:28.566Z,59.30
2022-08-04T07:14:36.283Z,59.01
2022-08-04T07:19:39.296Z,58.84
2022-08-04T07:24:43.039Z,58.54
2022-08-04T07:29:47.877Z,58.12
2022-08-04T07:34:52.033Z,57.83
2022-08-04T07:39:55.611Z,57.62
2022-08-04T07:44:59.722Z,57.14
2022-08-04T07:50:03.354Z,56.56
2022-08-04T07:55:07.296Z,56.20
2022-08-04T08:00:12.385Z,55.83
2022-08-04T08:05:17.116Z,55.33
2022-08-04T08:10:20.904Z,55.01
2022-08-04T08:15:24.445Z,54.19
2022-08-04T08:20:31.684Z,53.81
2022-08-04T08:25:34.957Z,53.51
2022-08-04T08:30:38.797Z,53.31
2022-08-04T08:35:54.691Z,52.94
2022-08-04T08:41:25.667Z,52.47
2022-08-04T08:46:48.830Z,52.24
2022-08-04T08:52:10.107Z,51.88
2022-08-04T08:57:13.009Z,51.36
2022-08-04T09:02:18.490Z,50.77
2022-08-04T09:07:47.598Z,50.08
2022-08-04T09:12:59.718Z,49.88
2022-08-04T09:18:24.095Z,49.58
2022-08-04T09:24:03.851Z,49.20
2022-08-04T09:29:53.705Z,48.81
2022-08-04T09:35:41.542Z,48.44
2022-08-04T09:40:57.754Z,47.66
2022-08-04T09:46:21.727Z,47.39
2022-08-04T09:51:57.343Z,47.12
2022-08-04T09:57:22.638Z,46.49
2022-08-04T10:02:29.155Z,46.45
2022-08-04T10:07:38.121Z,46.30
2022-08-04T10:13:21.442Z,45.87
2022-08-04T10:19:12.263Z,45.95
2022-08-04T10:25:00.137Z,45.74
2022-08-04T10:30:12.076Z,45.19
2022-08-04T10:35:23.882Z,45.28
2022-08-04T10:41:11.882Z,45.35
2022-08-04T10:46:23.680Z,45.04
2022-08-04T10:51:57.205Z,44.93
2022-08-04T10:57:08.769Z,44.62
2022-08-04T11:02:26.473Z,44.34
2022-08-04T11:07:33.550Z,44.10
2022-08-04T11:12:39.429Z,43.56
2022-08-04T11:17:46.593Z,43.52
2022-08-04T11:23:11.977Z,43.18
2022-08-04T11:28:24.966Z,42.90
2022-08-04T11:33:38.711Z,42.64
2022-08-04T11:38:52.443Z,42.38
2022-08-04T11:44:02.484Z,42.16
2022-08-04T11:49:26.766Z,41.92
2022-08-04T11:54:32.073Z,41.75
2022-08-04T11:59:37.059Z,41.14
2022-08-04T12:04:55.802Z,41.26
2022-08-04T12:10:10.868Z,40.95
2022-08-04T12:15:15.395Z,40.75
2022-08-04T12:20:38.094Z,40.60
2022-08-04T12:25:48.059Z,40.06
2022-08-04T12:31:05.120Z,40.24
2022-08-04T12:36:31.750Z,39.97
2022-08-04T12:42:02.476Z,39.49
2022-08-04T12:47:36.541Z,39.12
2022-08-04T12:58:16.043Z,38.96
2022-08-04T13:03:20.936Z,38.70
2022-08-04T13:08:24.429Z,38.57
2022-08-04T13:13:29.302Z,38.22
2022-08-04T13:18:35.678Z,38.28
2022-08-04T13:24:10.912Z,37.63
2022-08-04T13:29:16.688Z,37.30
2022-08-04T13:34:20.959Z,37.31
2022-08-04T13:39:25.009Z,37.31
2022-08-04T13:44:34.429Z,37.11
2022-08-04T13:49:54.641Z,36.81
2022-08-04T13:55:00.712Z,36.41
2022-08-04T14:00:09.365Z,36.21
2022-08-04T14:05:28.707Z,35.92
2022-08-04T14:10:34.973Z,35.77
2022-08-04T14:16:01.625Z,35.34
2022-08-04T14:21:13.030Z,35.49
2022-08-04T14:26:32.929Z,34.95
2022-08-04T14:31:36.598Z,34.87
2022-08-04T14:37:16.743Z,34.74
2022-08-04T14:42:43.697Z,34.39
2022-08-04T14:47:52.031Z,34.22
2022-08-04T14:53:03.665Z,34.47
2022-08-04T14:58:36.228Z,34.45
2022-08-04T15:03:31.590Z,34.68
2022-08-04T15:08:34.708Z,34.77
2022-08-04T15:13:38.409Z,34.96
2022-08-04T15:18:41.905Z,35.02
2022-08-04T15:23:44.796Z,35.23
2022-08-04T15:28:53.073Z,35.38
2022-08-04T15:33:57.097Z,35.65
2022-08-04T15:39:13.442Z,35.77
2022-08-04T15:44:30.841Z,35.56
2022-08-04T15:49:34.260Z,35.99
2022-08-04T15:54:37.698Z,35.59
2022-08-04T16:00:02.163Z,35.98
2022-08-04T16:05:18.207Z,36.41
2022-08-04T16:10:30.190Z,36.76
2022-08-04T16:15:38.962Z,36.67
2022-08-04T16:20:46.728Z,36.69
2022-08-04T16:25:55.148Z,36.77
2022-08-04T16:31:12.133Z,36.99
2022-08-04T16:36:16.849Z,37.12
2022-08-04T16:41:39.488Z,37.27
2022-08-04T16:47:08.552Z,37.48
2022-08-04T16:52:13.324Z,37.53
2022-08-04T16:57:16.756Z,37.71
2022-08-04T17:02:25.309Z,37.82
2022-08-04T17:07:28.498Z,37.87
2022-08-04T17:12:31.406Z,38.19
2022-08-04T17:18:04.073Z,38.57
2022-08-04T17:24:14.954Z,38.90
2022-08-04T17:28:56.180Z,39.11
2022-08-04T17:34:03.177Z,39.38
2022-08-04T17:39:21.429Z,39.65
2022-08-04T17:44:37.890Z,39.91
2022-08-04T17:49:52.786Z,40.07
2022-08-04T17:55:02.870Z,40.21
2022-08-04T18:00:07.634Z,40.31
2022-08-04T18:05:50.195Z,40.60
2022-08-04T18:10:56.766Z,40.81
2022-08-04T18:16:04.882Z,41.01
2022-08-04T18:21:08.044Z,41.24
2022-08-04T18:26:10.890Z,41.33
2022-08-04T18:31:21.783Z,41.56
2022-08-04T18:36:35.435Z,41.83
2022-08-04T18:42:01.082Z,42.07
2022-08-04T18:47:22.068Z,42.29
2022-08-04T18:52:26.727Z,42.33
2022-08-04T18:58:01.221Z,42.64
2022-08-04T19:02:55.420Z,42.91
2022-08-04T19:08:11.088Z,42.96
2022-08-04T19:13:25.368Z,43.22
2022-08-04T19:18:31.193Z,43.37
2022-08-04T19:24:28.872Z,43.32
2022-08-04T19:28:57.365Z,43.31
2022-08-04T19:34:05.082Z,43.46
2022-08-04T19:39:11.491Z,43.92
2022-08-04T19:44:15.103Z,43.73
2022-08-04T19:50:02.780Z,44.08
2022-08-04T19:54:43.494Z,44.25
2022-08-04T19:59:52.263Z,44.33
2022-08-04T20:04:58.003Z,44.33
2022-08-04T20:10:04.318Z,44.58
2022-08-04T20:15:08.381Z,44.70
2022-08-04T20:20:15.435Z,44.90
2022-08-04T20:25:36.560Z,44.93
2022-08-04T20:30:40.746Z,45.21
2022-08-04T20:36:03.360Z,45.32
2022-08-04T20:41:08.308Z,45.48
2022-08-04T20:46:18.527Z,45.54
2022-08-04T20:51:33.720Z,45.67
2022-08-04T20:56:50.638Z,45.73
2022-08-04T21:01:54.673Z,45.89
2022-08-04T21:06:59.839Z,46.02
2022-08-04T21:12:05.411Z,46.14
2022-08-04T21:17:08.940Z,46.23
2022-08-04T21:22:29.806Z,46.43
2022-08-04T21:27:39.542Z,46.57
2022-08-04T21:32:42.744Z,46.79
2022-08-04T21:37:57.906Z,46.93
2022-08-04T21:43:04.288Z,47.08
2022-08-04T21:48:07.290Z,47.20
2022-08-04T21:53:12.516Z,47.37
2022-08-04T21:58:15.643Z,47.48
2022-08-04T22:03:51.997Z,47.76
2022-08-04T22:08:43.756Z,47.94
2022-08-04T22:14:10.652Z,47.96
2022-08-04T22:19:14.411Z,48.30
2022-08-04T22:24:26.169Z,48.50
2022-08-04T22:29:32.785Z,48.66
2022-08-04T22:34:39.493Z,48.74
2022-08-04T22:39:56.253Z,48.66
2022-08-04T22:45:02.946Z,48.73
2022-08-04T22:50:27.621Z,48.82
2022-08-04T22:56:07.291Z,48.85
2022-08-04T23:00:54.437Z,48.95
2022-08-04T23:06:10.759Z,49.01
2022-08-04T23:11:14.942Z,49.13
2022-08-04T23:16:19.170Z,49.15
2022-08-04T23:21:24.361Z,49.20
2022-08-04T23:26:28.407Z,49.27
2022-08-04T23:31:41.686Z,49.38
2022-08-04T23:36:55.462Z,49.56
2022-08-04T23:41:58.374Z,49.67
2022-08-04T23:47:02.267Z,49.55
2022-08-04T23:52:05.812Z,49.74
2022-08-04T23:57:26.980Z,49.71
